Agua Clara, Brazil
Current Conditions -  °F | °C
As of 2:00 AM on Thursday 23 Oct 2014 (Local Time) from SBCG Reporting Station
Clear Clear  
Wind Chill: 70°   Ceiling: Unl
Heat Index: 70°   Visibility: 6mi
Dew Point: 57°   Wind: 8mph
Humidity: 64%   Direction: 120°ESE
Pressure: 29.97"   Gusts: NA
Location:  20.45°S, 52.88°W
Report Text: SBCG 230500Z 12007KT CAVOK 21/14 Q1015
Loading
Personal Weather Stations






























Interactive Weather Map
Tropical Storm Tracking
New forecast layout! Learn more

10-Day Weather Forecast

Advertisements
Track Severe Weather on mobile